Camargo, Illinois
Current Conditions -  °F | °C
As of 7:53 PM on Monday 24 Nov 2014 (Local Time) from KCMI Reporting Station
Overcast Overcast  
Wind Chill: 22°   Ceiling: 2800
Heat Index: 34°   Visibility: 10mi
Dew Point: 28°   Wind: 21mph
Humidity: 79%   Direction: 250°WSW
Pressure: 29.86"   Gusts: NA
Location:  39.8°N, 88.16°W
Report Text: KCMI 250153Z 25018KT 10SM OVC028 01/M02 A2986 RMK AO2 SLP116 T00111022 $
Loading
Personal Weather Stations






























Interactive Weather Map New forecast layout! Learn more

10-Day Weather Forecast

Advertisements
Track Severe Weather on mobile